createdAt,value
2018-10-18T00:00:10.143Z,38.57
2018-10-18T00:02:39.817Z,38.93
2018-10-18T00:05:09.997Z,39.13
2018-10-18T00:07:39.675Z,39.46
2018-10-18T00:10:09.649Z,39.47
2018-10-18T00:12:39.300Z,39.06
2018-10-18T00:15:09.467Z,38.64
2018-10-18T00:17:45.371Z,39.41
2018-10-18T00:20:16.478Z,39.49
2018-10-18T00:22:46.569Z,38.83
2018-10-18T00:25:16.662Z,38.43
2018-10-18T00:27:46.317Z,39.19
2018-10-18T00:30:16.467Z,38.94
2018-10-18T00:32:46.347Z,39.47
2018-10-18T00:35:16.081Z,39.01
2018-10-18T00:37:46.539Z,39.85
2018-10-18T00:40:16.614Z,38.88
2018-10-18T00:42:46.349Z,39.53
2018-10-18T00:45:16.009Z,39.72
2018-10-18T00:47:45.764Z,40.12
2018-10-18T00:50:15.694Z,39.25
2018-10-18T00:52:45.550Z,39.21
2018-10-18T00:55:15.294Z,40.34
2018-10-18T00:57:45.279Z,39.08
2018-10-18T01:00:15.360Z,39.89
2018-10-18T01:02:45.095Z,39.35
2018-10-18T01:05:14.970Z,40.11
2018-10-18T01:07:44.645Z,40.54
2018-10-18T01:10:14.322Z,41.02
2018-10-18T01:12:44.173Z,40.09
2018-10-18T01:15:13.801Z,40.23
2018-10-18T01:17:43.509Z,41.41
2018-10-18T01:20:13.372Z,40.51
2018-10-18T01:22:43.073Z,40.06
2018-10-18T01:25:12.813Z,40.50
2018-10-18T01:27:42.569Z,41.31
2018-10-18T01:30:12.248Z,40.66
2018-10-18T01:32:41.932Z,40.38
2018-10-18T01:35:11.620Z,40.92
2018-10-18T01:37:41.273Z,41.07
2018-10-18T01:40:10.987Z,40.88
2018-10-18T01:42:40.622Z,40.83
2018-10-18T01:45:10.371Z,41.38
2018-10-18T01:47:40.121Z,40.85
2018-10-18T01:50:10.405Z,40.74
2018-10-18T01:52:40.103Z,41.17
2018-10-18T01:55:10.018Z,40.47
2018-10-18T01:57:39.745Z,40.93
2018-10-18T02:00:09.780Z,41.15
2018-10-18T02:02:39.594Z,40.93
2018-10-18T02:05:09.290Z,41.84
2018-10-18T02:07:38.966Z,41.37
2018-10-18T02:10:08.975Z,41.46
2018-10-18T02:12:38.697Z,42.00
2018-10-18T02:15:10.379Z,41.98
2018-10-18T02:17:40.589Z,41.19
2018-10-18T02:20:11.345Z,41.32
2018-10-18T02:22:42.502Z,41.67
2018-10-18T02:25:12.413Z,41.37
2018-10-18T02:27:42.357Z,41.93
2018-10-18T02:30:12.118Z,42.67
2018-10-18T02:32:41.854Z,42.77
2018-10-18T02:35:11.594Z,42.24
2018-10-18T02:37:41.637Z,42.34
2018-10-18T02:40:11.320Z,42.29
2018-10-18T02:42:41.066Z,43.07
2018-10-18T02:45:10.982Z,42.16
2018-10-18T02:47:40.649Z,42.60
2018-10-18T02:50:10.314Z,43.03
2018-10-18T02:52:39.957Z,42.60
2018-10-18T02:55:09.655Z,42.86
2018-10-18T02:57:39.453Z,42.50
2018-10-18T03:00:09.217Z,42.25
2018-10-18T03:02:38.818Z,42.29
2018-10-18T03:05:08.406Z,42.65
2018-10-18T03:07:38.107Z,42.61
2018-10-18T03:10:08.241Z,43.67
2018-10-18T03:12:37.950Z,42.50
2018-10-18T03:15:08.469Z,43.77
2018-10-18T03:17:38.161Z,43.62
2018-10-18T03:20:07.773Z,42.27
2018-10-18T03:22:37.413Z,42.61
2018-10-18T03:25:08.133Z,44.08
2018-10-18T03:27:37.957Z,43.74
2018-10-18T03:30:08.315Z,42.85
2018-10-18T03:32:37.961Z,42.82
2018-10-18T03:35:08.398Z,43.68
2018-10-18T03:37:38.190Z,43.13
2018-10-18T03:40:08.552Z,43.51
2018-10-18T03:42:38.215Z,43.21
2018-10-18T03:45:08.030Z,42.90
2018-10-18T03:47:37.734Z,44.51
2018-10-18T03:50:07.285Z,43.24
2018-10-18T03:52:37.046Z,44.31
2018-10-18T03:55:07.043Z,44.47
2018-10-18T03:57:36.734Z,44.46
2018-10-18T04:00:07.336Z,44.33
2018-10-18T04:02:37.029Z,43.36
2018-10-18T04:05:07.365Z,43.97
2018-10-18T04:07:37.065Z,44.71
2018-10-18T04:10:07.137Z,43.46
2018-10-18T04:12:36.824Z,45.06
2018-10-18T04:18:24.920Z,43.43
2018-10-18T04:20:55.046Z,45.27
2018-10-18T04:23:31.109Z,45.00
2018-10-18T04:26:01.478Z,45.07
2018-10-18T04:28:31.683Z,44.43
2018-10-18T04:31:02.035Z,44.89
2018-10-18T04:33:32.529Z,44.42
2018-10-18T04:36:02.294Z,45.00
2018-10-18T04:38:31.785Z,44.32
2018-10-18T04:41:01.690Z,44.69
2018-10-18T04:43:31.449Z,43.69
2018-10-18T04:46:01.145Z,45.16
2018-10-18T04:48:30.997Z,45.40
2018-10-18T04:51:00.593Z,44.07
2018-10-18T04:53:30.249Z,43.97
2018-10-18T04:56:00.031Z,44.33
2018-10-18T04:58:29.658Z,44.07
2018-10-18T05:00:59.441Z,44.86
2018-10-18T05:03:29.109Z,44.86
2018-10-18T05:06:02.098Z,45.56
2018-10-18T05:08:32.119Z,45.52
2018-10-18T05:11:01.789Z,45.44
2018-10-18T05:13:31.862Z,45.67
2018-10-18T05:16:01.619Z,45.41
2018-10-18T05:18:31.389Z,45.17
2018-10-18T05:21:01.070Z,44.73
2018-10-18T05:23:30.777Z,46.25
2018-10-18T05:26:00.750Z,45.17
2018-10-18T05:28:30.423Z,45.37
2018-10-18T05:31:00.186Z,46.36
2018-10-18T05:33:29.850Z,46.14
2018-10-18T05:35:59.398Z,47.23
2018-10-18T05:38:29.053Z,46.84
2018-10-18T05:40:58.444Z,47.25
2018-10-18T05:43:27.876Z,45.93
2018-10-18T05:45:58.061Z,46.02
2018-10-18T05:48:27.733Z,46.23
2018-10-18T05:50:57.429Z,45.98
2018-10-18T05:53:27.201Z,46.71
2018-10-18T05:55:56.866Z,47.23
2018-10-18T05:58:26.622Z,47.21
2018-10-18T06:00:56.351Z,47.12
2018-10-18T06:03:26.074Z,47.26
2018-10-18T06:05:55.854Z,45.92
2018-10-18T06:08:25.431Z,47.46
2018-10-18T06:11:06.101Z,47.21
2018-10-18T06:13:35.810Z,46.75
2018-10-18T06:16:05.673Z,46.60
2018-10-18T06:18:35.505Z,47.32
2018-10-18T06:21:05.225Z,47.09
2018-10-18T06:23:35.298Z,47.34
2018-10-18T06:26:05.213Z,47.09
2018-10-18T06:28:35.046Z,47.36
2018-10-18T06:31:04.677Z,46.33
2018-10-18T06:33:34.502Z,46.50
2018-10-18T06:36:04.328Z,46.65
2018-10-18T06:38:34.255Z,46.42
2018-10-18T06:41:04.738Z,46.73
2018-10-18T06:43:37.786Z,46.38
2018-10-18T06:46:09.611Z,46.55
2018-10-18T06:48:39.516Z,46.33
2018-10-18T06:51:10.422Z,46.01
2018-10-18T06:53:40.826Z,46.39
2018-10-18T06:56:10.666Z,46.37
2018-10-18T06:58:40.367Z,46.56
2018-10-18T07:01:10.453Z,46.69
2018-10-18T07:03:40.149Z,47.00
2018-10-18T07:06:09.844Z,47.21
2018-10-18T07:08:39.432Z,47.44
2018-10-18T07:11:09.414Z,46.48
2018-10-18T07:13:38.810Z,45.84
2018-10-18T07:16:08.266Z,46.91
2018-10-18T07:18:37.710Z,45.99
2018-10-18T07:21:07.513Z,46.43
2018-10-18T07:23:37.606Z,47.27
2018-10-18T07:26:07.509Z,46.73
2018-10-18T07:28:37.153Z,46.06
2018-10-18T07:31:06.869Z,47.55
2018-10-18T07:33:36.526Z,47.07
2018-10-18T07:36:06.189Z,47.15
2018-10-18T07:38:35.774Z,46.67
2018-10-18T07:41:05.597Z,46.85
2018-10-18T07:43:35.433Z,47.60
2018-10-18T07:46:05.150Z,47.62
2018-10-18T07:48:34.853Z,47.52
2018-10-18T07:51:04.529Z,47.84
2018-10-18T07:53:34.418Z,47.23
2018-10-18T07:56:03.967Z,46.77
2018-10-18T07:58:33.614Z,47.65
2018-10-18T08:01:03.320Z,46.97
2018-10-18T08:03:32.961Z,47.60
2018-10-18T08:06:02.738Z,47.47
2018-10-18T08:08:32.386Z,47.74
2018-10-18T08:11:02.186Z,47.57
2018-10-18T08:13:31.834Z,47.36
2018-10-18T08:16:01.866Z,47.30
2018-10-18T08:18:31.450Z,46.74
2018-10-18T08:21:01.286Z,46.66
2018-10-18T08:23:30.942Z,48.07
2018-10-18T08:26:00.791Z,46.64
2018-10-18T08:28:30.472Z,47.55
2018-10-18T08:31:00.232Z,48.03
2018-10-18T08:33:29.949Z,47.57
2018-10-18T08:35:59.528Z,46.93
2018-10-18T08:38:29.546Z,47.86
2018-10-18T08:40:59.198Z,47.21
2018-10-18T08:43:28.910Z,47.85
2018-10-18T08:45:58.654Z,48.29
2018-10-18T08:48:28.217Z,46.84
2018-10-18T08:50:57.984Z,47.10
2018-10-18T08:53:27.569Z,47.39
2018-10-18T08:55:57.257Z,47.19
2018-10-18T08:58:26.945Z,47.21
2018-10-18T09:00:57.065Z,48.30
2018-10-18T09:03:26.777Z,47.85
2018-10-18T09:05:56.790Z,48.46
2018-10-18T09:08:26.501Z,47.49
2018-10-18T09:10:56.234Z,47.33
2018-10-18T09:13:26.311Z,48.41
2018-10-18T09:15:56.125Z,47.20
2018-10-18T09:18:26.156Z,47.18
2018-10-18T09:20:55.901Z,48.69
2018-10-18T09:23:25.465Z,48.48
2018-10-18T09:25:55.469Z,47.99
2018-10-18T09:28:25.222Z,48.59
2018-10-18T09:30:54.964Z,48.02
2018-10-18T09:33:24.741Z,48.57
2018-10-18T09:35:54.553Z,48.64
2018-10-18T09:38:24.288Z,47.76
2018-10-18T09:40:53.967Z,47.63
2018-10-18T09:43:23.662Z,48.61
2018-10-18T09:45:53.453Z,47.94
2018-10-18T09:48:23.202Z,47.34
2018-10-18T09:50:52.978Z,47.68
2018-10-18T09:53:22.739Z,47.50
2018-10-18T09:55:52.444Z,47.65
2018-10-18T09:58:22.090Z,48.07
2018-10-18T10:00:56.841Z,47.94
2018-10-18T10:03:26.794Z,48.41
2018-10-18T10:05:56.435Z,48.51
2018-10-18T10:08:26.172Z,48.38
2018-10-18T10:10:55.886Z,48.29
2018-10-18T10:13:25.667Z,49.16
2018-10-18T10:15:55.266Z,48.77
2018-10-18T10:18:25.066Z,48.63
2018-10-18T10:20:54.786Z,49.16
2018-10-18T10:23:24.473Z,48.22
2018-10-18T10:25:54.158Z,47.88
2018-10-18T10:28:23.910Z,49.30
2018-10-18T10:30:53.631Z,49.57
2018-10-18T10:33:23.515Z,49.28
2018-10-18T10:35:53.244Z,48.86
2018-10-18T10:38:23.085Z,48.29
2018-10-18T10:40:52.904Z,48.30
2018-10-18T10:43:22.608Z,48.64
2018-10-18T10:45:52.431Z,48.60
2018-10-18T10:48:22.078Z,48.41
2018-10-18T10:50:51.835Z,49.91
2018-10-18T10:53:21.561Z,49.77
2018-10-18T10:55:51.977Z,48.81
2018-10-18T10:58:21.614Z,49.34
2018-10-18T11:01:23.049Z,50.03
2018-10-18T11:03:54.020Z,49.85
2018-10-18T11:06:23.996Z,49.57
2018-10-18T11:08:53.563Z,48.88
2018-10-18T11:11:23.697Z,49.77
2018-10-18T11:13:53.418Z,49.65
2018-10-18T11:16:23.141Z,49.46
2018-10-18T11:18:52.825Z,49.79
2018-10-18T11:21:22.538Z,49.24
2018-10-18T11:23:52.365Z,50.05
2018-10-18T11:26:22.071Z,49.05
2018-10-18T11:28:51.758Z,49.12
2018-10-18T11:31:21.475Z,48.72
2018-10-18T11:33:51.127Z,48.78
2018-10-18T11:36:20.835Z,50.27
2018-10-18T11:38:50.484Z,49.48
2018-10-18T11:41:20.197Z,48.97
2018-10-18T11:43:49.807Z,48.74
2018-10-18T11:46:19.473Z,49.85
2018-10-18T11:48:49.119Z,49.14
2018-10-18T11:51:18.877Z,49.98
2018-10-18T11:53:48.796Z,49.98
2018-10-18T11:56:18.629Z,49.27
2018-10-18T11:58:48.508Z,48.87
2018-10-18T12:01:18.320Z,49.64
2018-10-18T12:03:48.002Z,49.36
2018-10-18T12:06:17.581Z,49.18
2018-10-18T12:08:47.297Z,49.80
2018-10-18T12:11:17.041Z,50.43
2018-10-18T12:13:47.020Z,49.13
2018-10-18T12:16:16.722Z,49.56
2018-10-18T12:18:46.745Z,48.98
2018-10-18T12:21:16.712Z,50.04
2018-10-18T12:23:46.735Z,49.36
2018-10-18T12:26:16.647Z,49.91
2018-10-18T12:28:46.359Z,49.77
2018-10-18T12:31:16.094Z,49.18
2018-10-18T12:33:45.762Z,49.85
2018-10-18T12:36:15.522Z,50.08
2018-10-18T12:38:45.317Z,49.20
2018-10-18T12:41:15.760Z,48.81
2018-10-18T12:43:45.353Z,49.06
2018-10-18T12:46:15.030Z,48.92
2018-10-18T12:48:45.146Z,50.21
2018-10-18T12:51:14.750Z,50.13
2018-10-18T12:53:44.513Z,50.14
2018-10-18T12:56:14.261Z,49.67
2018-10-18T12:58:43.906Z,49.95
2018-10-18T13:01:13.641Z,49.54
2018-10-18T13:03:43.339Z,49.77
2018-10-18T13:06:13.036Z,48.89
2018-10-18T13:08:42.743Z,49.18
2018-10-18T13:11:12.446Z,49.91
2018-10-18T13:13:42.086Z,49.72
2018-10-18T13:16:11.778Z,50.12
2018-10-18T13:18:41.430Z,50.52
2018-10-18T13:21:11.142Z,50.34
2018-10-18T13:23:41.078Z,49.37
2018-10-18T13:26:10.839Z,50.30
2018-10-18T13:28:40.505Z,49.58
2018-10-18T13:31:10.075Z,49.54
2018-10-18T13:33:39.777Z,49.86
2018-10-18T13:36:09.797Z,49.69
2018-10-18T13:38:39.540Z,50.36
2018-10-18T13:41:09.141Z,49.82
2018-10-18T13:43:38.857Z,49.87
2018-10-18T13:46:08.408Z,49.41
2018-10-18T13:48:38.166Z,50.16
2018-10-18T13:51:08.490Z,49.25
2018-10-18T13:53:42.430Z,49.94
2018-10-18T13:56:13.264Z,50.13
2018-10-18T13:58:43.572Z,49.52
2018-10-18T14:01:13.298Z,50.91
2018-10-18T14:03:43.249Z,50.27
2018-10-18T14:06:12.877Z,50.17
2018-10-18T14:08:42.685Z,50.84
2018-10-18T14:11:12.413Z,50.51
2018-10-18T14:13:42.061Z,49.57
2018-10-18T14:16:11.946Z,50.95
2018-10-18T14:18:41.858Z,50.04
2018-10-18T14:21:11.506Z,50.74
2018-10-18T14:23:41.398Z,49.81
2018-10-18T14:26:11.072Z,51.04
2018-10-18T14:28:40.737Z,50.84
2018-10-18T14:31:10.694Z,50.85
2018-10-18T14:33:40.682Z,49.92
2018-10-18T14:36:10.338Z,50.53
2018-10-18T14:38:40.117Z,51.43
2018-10-18T14:41:09.597Z,50.45
2018-10-18T14:43:39.392Z,50.07
2018-10-18T14:46:09.032Z,50.06
2018-10-18T14:48:38.881Z,50.25
2018-10-18T14:51:09.196Z,50.58
2018-10-18T14:53:38.897Z,50.44
2018-10-18T14:56:08.577Z,50.35
2018-10-18T14:58:38.294Z,51.32
2018-10-18T15:01:08.079Z,50.46
2018-10-18T15:03:37.826Z,50.13
2018-10-18T15:06:07.315Z,51.18
2018-10-18T15:08:37.101Z,51.36
2018-10-18T15:11:07.218Z,50.04
2018-10-18T15:13:37.381Z,49.91
2018-10-18T15:16:07.054Z,50.11
2018-10-18T15:18:36.710Z,50.96
2018-10-18T15:21:06.742Z,51.46
2018-10-18T15:23:36.403Z,50.23
2018-10-18T15:26:06.373Z,49.94
2018-10-18T15:28:36.022Z,50.12
2018-10-18T15:31:05.803Z,50.20
2018-10-18T15:33:35.786Z,50.90
2018-10-18T15:36:05.526Z,50.38
2018-10-18T15:38:35.330Z,50.02
2018-10-18T15:41:05.020Z,49.96
2018-10-18T15:43:34.710Z,49.47
2018-10-18T15:46:04.358Z,50.50
2018-10-18T15:48:34.759Z,49.58
2018-10-18T15:51:05.575Z,50.20
2018-10-18T15:53:35.333Z,50.07
2018-10-18T15:56:05.118Z,49.15
2018-10-18T15:58:34.812Z,50.45
2018-10-18T16:01:04.484Z,50.62
2018-10-18T16:03:34.198Z,50.19
2018-10-18T16:06:03.955Z,49.74
2018-10-18T16:08:33.654Z,49.27
2018-10-18T16:11:03.410Z,50.36
2018-10-18T16:13:33.492Z,49.16
2018-10-18T16:16:03.183Z,49.49
2018-10-18T16:18:33.006Z,49.88
2018-10-18T16:21:02.958Z,50.68
2018-10-18T16:23:33.983Z,50.22
2018-10-18T16:26:04.004Z,50.88
2018-10-18T16:28:34.575Z,49.82
2018-10-18T16:31:04.549Z,50.67
2018-10-18T16:33:34.238Z,49.92
2018-10-18T16:36:03.872Z,50.40
2018-10-18T16:38:34.066Z,48.92
2018-10-18T16:41:03.868Z,49.00
2018-10-18T16:43:33.406Z,48.70
2018-10-18T16:46:02.994Z,49.02
2018-10-18T16:48:33.033Z,49.06
2018-10-18T16:51:02.703Z,47.81
2018-10-18T16:53:32.537Z,48.31
2018-10-18T16:56:02.469Z,47.95
2018-10-18T16:58:32.131Z,48.04
2018-10-18T17:01:02.007Z,46.24
2018-10-18T17:03:31.658Z,46.74
2018-10-18T17:06:01.468Z,45.89
2018-10-18T17:08:31.730Z,46.25
2018-10-18T17:11:01.954Z,44.34
2018-10-18T17:13:31.919Z,44.79
2018-10-18T17:16:01.766Z,44.70
2018-10-18T17:18:31.487Z,44.05
2018-10-18T17:21:01.272Z,42.85
2018-10-18T17:23:30.933Z,42.11
2018-10-18T17:26:00.634Z,42.17
2018-10-18T17:28:30.233Z,41.58
2018-10-18T17:31:00.069Z,40.71
2018-10-18T17:33:29.768Z,40.27
2018-10-18T17:35:59.532Z,40.78
2018-10-18T17:38:29.437Z,39.64
2018-10-18T17:40:59.451Z,40.23
2018-10-18T17:43:29.384Z,38.98
2018-10-18T17:45:59.526Z,39.74
2018-10-18T17:48:29.140Z,39.03
2018-10-18T17:51:00.129Z,39.18
2018-10-18T17:53:29.918Z,37.81
2018-10-18T17:55:59.585Z,37.96
2018-10-18T17:58:29.326Z,36.97
2018-10-18T18:00:59.026Z,36.72
2018-10-18T18:03:29.040Z,36.71
2018-10-18T18:05:58.801Z,36.61
2018-10-18T18:08:29.059Z,36.79
2018-10-18T18:10:58.891Z,35.93
2018-10-18T18:13:28.738Z,36.42
2018-10-18T18:15:58.569Z,35.70
2018-10-18T18:18:28.511Z,35.23
2018-10-18T18:20:58.457Z,35.73
2018-10-18T18:23:28.266Z,34.59
2018-10-18T18:25:58.114Z,34.36
2018-10-18T18:28:28.097Z,35.12
2018-10-18T18:30:57.922Z,34.78
2018-10-18T18:33:27.591Z,34.15
2018-10-18T18:35:57.474Z,33.91
2018-10-18T18:38:27.381Z,33.24
2018-10-18T18:40:57.119Z,33.70
2018-10-18T18:43:27.383Z,33.64
2018-10-18T18:45:57.623Z,34.52
2018-10-18T18:48:27.380Z,32.72
2018-10-18T18:50:57.442Z,33.52
2018-10-18T18:53:27.240Z,32.95
2018-10-18T18:55:57.162Z,33.17
2018-10-18T18:58:26.943Z,33.08
2018-10-18T19:00:56.753Z,32.55
2018-10-18T19:03:26.458Z,32.65
2018-10-18T19:05:56.350Z,32.14
2018-10-18T19:08:26.022Z,33.10
2018-10-18T19:10:55.815Z,32.12
2018-10-18T19:13:25.887Z,31.91
2018-10-18T19:15:56.355Z,31.35
2018-10-18T19:18:26.033Z,32.50
2018-10-18T19:20:55.727Z,32.60
2018-10-18T19:23:25.746Z,32.75
2018-10-18T19:26:07.657Z,32.84
2018-10-18T19:28:37.491Z,32.51
2018-10-18T19:31:09.391Z,32.67
2018-10-18T19:33:39.112Z,31.67
2018-10-18T19:36:10.350Z,31.48
2018-10-18T19:38:40.198Z,32.60
2018-10-18T19:41:09.769Z,32.69
2018-10-18T19:43:40.036Z,32.79
2018-10-18T19:46:10.604Z,31.92
2018-10-18T19:48:40.178Z,32.50
2018-10-18T19:51:10.052Z,32.75
2018-10-18T19:53:40.019Z,32.50
2018-10-18T19:56:11.780Z,32.44
2018-10-18T19:58:41.826Z,32.24
2018-10-18T20:01:12.397Z,31.81
2018-10-18T20:03:42.678Z,33.07
2018-10-18T20:06:12.398Z,32.36
2018-10-18T20:08:42.125Z,31.42
2018-10-18T20:11:12.012Z,31.71
2018-10-18T20:13:41.806Z,31.77
2018-10-18T20:16:12.437Z,31.95
2018-10-18T20:18:42.462Z,32.46
2018-10-18T20:21:12.216Z,32.08
2018-10-18T20:23:41.772Z,32.62
2018-10-18T20:26:12.059Z,32.62
2018-10-18T20:28:41.782Z,32.33
2018-10-18T20:31:11.656Z,32.27
2018-10-18T20:33:41.351Z,32.70
2018-10-18T20:36:11.066Z,32.45
2018-10-18T20:38:40.794Z,32.74
2018-10-18T20:41:10.521Z,33.53
2018-10-18T20:43:40.160Z,33.32
2018-10-18T20:46:09.702Z,33.74
2018-10-18T20:48:39.770Z,33.87
2018-10-18T20:51:09.468Z,34.81
2018-10-18T20:53:39.182Z,35.44
2018-10-18T20:56:09.086Z,35.74
2018-10-18T20:58:39.181Z,35.30
2018-10-18T21:01:08.739Z,35.56
2018-10-18T21:03:38.470Z,35.32
2018-10-18T21:06:08.188Z,35.78
2018-10-18T21:08:37.909Z,35.32
2018-10-18T21:11:08.157Z,37.01
2018-10-18T21:13:37.794Z,34.96
2018-10-18T21:16:07.689Z,35.34
2018-10-18T21:18:37.381Z,35.70
2018-10-18T21:21:07.204Z,35.66
2018-10-18T21:23:36.989Z,35.16
2018-10-18T21:26:06.925Z,35.20
2018-10-18T21:28:36.701Z,36.14
2018-10-18T21:31:06.473Z,36.26
2018-10-18T21:33:36.138Z,35.79
2018-10-18T21:36:05.631Z,36.33
2018-10-18T21:38:35.350Z,35.81
2018-10-18T21:41:05.120Z,36.28
2018-10-18T21:43:34.918Z,36.66
2018-10-18T21:46:06.633Z,36.57
2018-10-18T21:48:37.775Z,35.92
2018-10-18T21:51:07.558Z,36.11
2018-10-18T21:53:37.266Z,36.26
2018-10-18T21:56:06.793Z,37.14
2018-10-18T21:58:36.440Z,37.11
2018-10-18T22:01:06.138Z,37.01
2018-10-18T22:03:35.769Z,36.19
2018-10-18T22:06:05.800Z,37.31
2018-10-18T22:08:35.545Z,37.39
2018-10-18T22:11:05.479Z,37.27
2018-10-18T22:13:35.185Z,37.36
2018-10-18T22:16:04.812Z,38.04
2018-10-18T22:18:34.487Z,37.70
2018-10-18T22:21:04.243Z,38.63
2018-10-18T22:23:34.021Z,38.33
2018-10-18T22:26:03.742Z,37.47
2018-10-18T22:28:33.789Z,38.60
2018-10-18T22:31:03.622Z,38.13
2018-10-18T22:33:33.283Z,37.97
2018-10-18T22:36:02.812Z,38.31
2018-10-18T22:38:32.465Z,38.10
2018-10-18T22:41:02.237Z,38.05
2018-10-18T22:43:31.881Z,38.39
2018-10-18T22:46:01.622Z,37.95
2018-10-18T22:48:32.177Z,37.75
2018-10-18T22:51:02.469Z,38.35
2018-10-18T22:53:31.957Z,38.62
2018-10-18T22:56:01.546Z,39.17
2018-10-18T22:58:31.233Z,39.87
2018-10-18T23:01:00.843Z,39.71
2018-10-18T23:03:30.530Z,39.36
2018-10-18T23:06:00.609Z,39.29
2018-10-18T23:08:30.270Z,39.78
2018-10-18T23:11:00.387Z,39.19
2018-10-18T23:13:30.350Z,38.96
2018-10-18T23:16:00.082Z,39.92
2018-10-18T23:18:30.059Z,39.99
2018-10-18T23:20:59.719Z,39.65
2018-10-18T23:23:29.442Z,39.05
2018-10-18T23:25:59.365Z,39.17
2018-10-18T23:28:29.288Z,39.09
2018-10-18T23:30:59.019Z,39.53
2018-10-18T23:33:28.678Z,39.96
2018-10-18T23:35:58.382Z,40.24
2018-10-18T23:38:28.418Z,40.09
2018-10-18T23:40:58.103Z,39.78
2018-10-18T23:43:27.753Z,40.05
2018-10-18T23:45:57.478Z,39.88
2018-10-18T23:48:27.225Z,40.84
2018-10-18T23:50:56.867Z,40.34
2018-10-18T23:53:28.683Z,40.11
2018-10-18T23:55:59.753Z,39.91
2018-10-18T23:58:29.445Z,40.19
